Charlestown, Indiana
Current Conditions -  °F | °C
As of 10:53 PM on Thursday 18 Dec 2014 (Local Time) from KLOU Reporting Station
Overcast Overcast  
Wind Chill: 32°   Ceiling: 7000
Heat Index: 32°   Visibility: 10mi
Dew Point: 24°   Wind: 0mph
Humidity: 73%   Direction: NA
Pressure: 30.27"   Gusts: NA
Location:  38.44°N, 85.65°W
Report Text: KLOU 190353Z 00000KT 10SM OVC070 00/M04 A3027 RMK AO2 SLP254 T00001044
Loading
Personal Weather Stations






























Interactive Weather Map New forecast layout! Learn more

10-Day Weather Forecast

Advertisements
Track Severe Weather on mobile